• Join FlightAware (Why Join?)
  • Login
  • US Flag 
01:00AM EDT


 

Airport Tracker/Info


-or-


 

Live Flight TrackerFlight Track Log ✈ N269AM ✈ 03-May-2014 ✈ KBFI - KUAO

Flight Track Log - Related Links

Times and Time Zones

All times are in EDT time to prevent confusion due to time zone crossing. See the N269AM flight status page for this flight to view local times or setup timezone preferences in your user account.

Time Position Orientation Groundspeed Altitude Reporting Facility
EDT Latitude Longitude Course Direction KTS MPH feet Rate Location/Type
03:57PM 47.5064 -122.2842 151° Southeast 72 83 600  Level Seattle Center
03:59PM 47.4781 -122.2606 151° Southeast 77 89 1,200 360 Climbing Seattle Center
04:00PM 47.4567 -122.2461 155° Southeast 72 83 1,700 360 Climbing Seattle Center
04:01PM 47.4417 -122.2217 132° Southeast 75 86 2,100 360 Climbing Seattle Center
04:02PM 47.4319 -122.2086 138° Southeast 76 87 2,400 420 Climbing Seattle Center
04:02PM 47.4278 -122.2031 138° Southeast 75 86 2,500 300 Climbing Seattle Center
04:03PM 47.4197 -122.1850 123° Southeast 75 86 2,700 360 Climbing Seattle Center
04:03PM 47.4167 -122.1764 118° Southeast 73 84 2,900 360 Climbing Seattle Center
04:04PM 47.4078 -122.1603 129° Southeast 75 86 3,100 300 Climbing Seattle Center
04:04PM 47.4028 -122.1481 121° Southeast 75 86 3,300 360 Climbing Seattle Center
04:05PM 47.3967 -122.1353 125° Southeast 75 86 3,500 360 Climbing Seattle Center
04:05PM 47.3883 -122.1267 145° Southeast 75 86 3,700 360 Climbing Seattle Center
04:06PM 47.3806 -122.1203 151° Southeast 72 83 3,900 300 Climbing Seattle Center
04:06PM 47.3722 -122.1158 160° South 64 74 4,000 60 Climbing Seattle Center
04:07PM 47.3628 -122.1075 149° Southeast 68 78 4,000 120 Level Seattle Center
04:07PM 47.3519 -122.0975 148° Southeast 79 91 4,200 360 Climbing Seattle Center
04:08PM 47.3422 -122.0911 156° South 76 87 4,400 360 Climbing Seattle Center
04:08PM 47.3378 -122.0858 141° Southeast 76 87 4,500 240 Climbing Seattle Center
04:09PM 47.3261 -122.0753 148° Southeast 74 85 4,700 300 Climbing Seattle Center
04:09PM 47.3183 -122.0706 158° South 67 77 4,900 360 Climbing Seattle Center
04:10PM 47.3100 -122.0661 160° South 65 75 5,100 240 Climbing Seattle Center
04:10PM 47.3025 -122.0694 197° South 58 67 5,200 240 Climbing Seattle Center
04:11PM 47.2947 -122.0725 195° South 60 69 5,400 300 Climbing Seattle Center
04:11PM 47.2881 -122.0742 190° South 56 64 5,500 180 Climbing Seattle Center
04:12PM 47.2789 -122.0744 181° South 60 69 5,600 180 Climbing Seattle Center
04:12PM 47.2703 -122.0742 179° South 59 68 5,700 360 Climbing Seattle Center
04:13PM 47.2614 -122.0747 182° South 60 69 6,000 240 Climbing Seattle Center
04:13PM 47.2544 -122.0731 171° South 60 69 6,000 60 Level Seattle Center
04:14PM 47.2417 -122.0717 176° South 63 72 6,100 180 Climbing Seattle Center
04:14PM 47.2367 -122.0733 193° South 67 77 6,200 240 Climbing Seattle Center
04:15PM 47.2247 -122.0722 176° South 63 72 6,400 240 Climbing Seattle Center
04:15PM 47.2197 -122.0761 208° Southwest 62 71 6,500 120 Climbing Seattle Center
04:16PM 47.2058 -122.0742 175° South 62 71 6,600 120 Climbing Seattle Center
04:17PM 47.1922 -122.0761 186° South 61 70 6,800 120 Climbing Seattle Center
04:18PM 47.1781 -122.0903 214° Southwest 61 70 6,900 60 Climbing Seattle Center
04:19PM 47.1725 -122.1189 254° West 73 84 7,000  Climbing Seattle Center
04:20PM 47.1550 -122.1344 211° Southwest 73 84 7,000  Level Seattle Center
04:21PM 47.1431 -122.1517 224° Southwest 71 82 7,000 60 Level Seattle Center
04:21PM 47.1403 -122.1656 254° West 70 81 7,100  Climbing Seattle Center
04:22PM 47.1361 -122.1842 252° West 71 82 7,000 -120 Descending Seattle Center
04:23PM 47.1272 -122.2017 233° Southwest 69 79 7,000 60 Level Seattle Center
04:23PM 47.1242 -122.2072 231° Southwest 67 77 7,100 60 Climbing Seattle Center
04:24PM 47.1172 -122.2261 242° Southwest 69 79 7,100  Level Seattle Center
04:24PM 47.1131 -122.2328 227° Southwest 70 81 7,100  Level Seattle Center
04:25PM 47.1033 -122.2492 229° Southwest 69 79 7,100  Level Seattle Center
04:25PM 47.1003 -122.2528 219° Southwest 71 82 7,100 -120 Level Seattle Center
04:26PM 47.0900 -122.2722 232° Southwest 70 81 7,000 -120 Descending Seattle Center
04:26PM 47.0864 -122.2767 220° Southwest 73 84 7,000  Level Seattle Center
04:27PM 47.0753 -122.2908 221° Southwest 71 82 7,000 -120 Level Seattle Center
04:27PM 47.0719 -122.2978 235° Southwest 70 81 6,900  Descending Seattle Center
04:28PM 47.0692 -122.3194 259° West 72 83 7,000  Climbing Seattle Center
04:29PM 47.0558 -122.3489 236° Southwest 73 84 7,000  Level Seattle Center
04:30PM 47.0464 -122.3694 236° Southwest 74 85 7,000 120 Level Seattle Center
04:30PM 47.0389 -122.3775 216° Southwest 70 81 7,200 180 Climbing Seattle Center
04:31PM 47.0322 -122.3883 228° Southwest 70 81 7,200  Level Seattle Center
04:31PM 47.0281 -122.3964 233° Southwest 68 78 7,200 -120 Level Seattle Center
04:32PM 47.0203 -122.4111 232° Southwest 70 81 7,100 -240 Descending Seattle Center
04:32PM 47.0172 -122.4153 223° Southwest 70 81 7,000 -540 Descending Seattle Center
04:33PM 47.0078 -122.4367 237° Southwest 74 85 6,600 -600 Descending Seattle Center
04:34PM 46.9975 -122.4647 242° Southwest 75 86 5,900 -600 Descending Seattle Center
04:34PM 46.9944 -122.4733 243° Southwest 77 89 5,900 -240 Level Seattle Center
04:35PM 46.9842 -122.4861 220° Southwest 69 79 5,700 -240 Descending Seattle Center
04:35PM 46.9808 -122.4903 220° Southwest 64 74 5,700 -240 Level Seattle Center
04:36PM 46.9828 -122.5100 278° West 81 93 5,500 -300 Descending Seattle Center
04:36PM 46.9847 -122.5142 304° West 80 92 5,400 -420 Descending Seattle Center
04:37PM 46.9847 -122.5403 270° West 81 93 5,100 -300 Descending Seattle Center
04:38PM 46.9797 -122.5733 258° West 81 93 4,900 -180 Descending Seattle Center
04:39PM 46.9792 -122.5886 267° West 85 98 4,900 60 Level Seattle Center
04:39PM 46.9797 -122.6069 273° West 82 94 5,000 60 Climbing Seattle Center
04:40PM 46.9786 -122.6436 267° West 82 94 5,000 -60 Level Seattle Center
04:41PM 46.9753 -122.6769 262° West 82 94 4,900 -60 Descending Seattle Center
04:42PM 46.9736 -122.7111 266° West 83 96 4,900  Level Seattle Center
04:43PM 46.9717 -122.7428 265° West 82 94 4,900 60 Level Seattle Center
04:44PM 46.9697 -122.7744 265° West 82 94 5,100 60 Climbing Seattle Center
04:45PM 46.9714 -122.8072 274° West 81 93 5,100 -120 Level Seattle Center
04:46PM 46.9536 -122.8200 206° Southwest 68 78 4,900 -60 Descending Seattle Center
04:47PM 46.9358 -122.8119 163° South 67 77 5,000  Climbing Seattle Center
04:48PM 46.9189 -122.8178 193° South 64 74 5,000  Level Seattle Center
04:49PM 46.9003 -122.8236 192° South 65 75 5,000 -60 Level Seattle Center
04:50PM 46.8792 -122.8306 193° South 69 79 4,900 -120 Descending Seattle Center
04:51PM 46.8594 -122.8336 186° South 69 79 4,800  Descending Seattle Center
04:52PM 46.8411 -122.8369 187° South 69 79 4,900 60 Climbing Seattle Center
04:53PM 46.8225 -122.8369 180° South 68 78 5,000  Climbing Seattle Center
04:54PM 46.8025 -122.8369 180° South 70 81 5,000 -60 Level Seattle Center
04:55PM 46.7797 -122.8386 183° South 72 83 4,900 -120 Descending Seattle Center
04:56PM 46.7606 -122.8422 187° South 72 83 4,800  Descending Seattle Center
04:57PM 46.7428 -122.8453 187° South 69 79 4,900  Climbing Seattle Center
04:58PM 46.7258 -122.8475 185° South 68 78 4,900  Level Seattle Center
05:00PM 46.7072 -122.8464 178° South 67 77 5,000  Climbing Seattle Center
05:01PM 46.6878 -122.8472 182° South 68 78 5,000  Level Seattle Center
05:02PM 46.6675 -122.8464 178° South 70 81 5,000  Level Seattle Center
05:03PM 46.6486 -122.8536 195° South 70 81 5,100 -60 Climbing Seattle Center
05:04PM 46.6261 -122.8650 199° South 71 82 4,900 -120 Descending Seattle Center
05:05PM 46.6067 -122.8761 201° Southwest 72 83 4,900  Level Seattle Center
05:06PM 46.5872 -122.8836 195° South 71 82 4,900  Level Seattle Center
05:07PM 46.5700 -122.8850 183° South 66 76 4,900  Level Seattle Center
05:08PM 46.5528 -122.8772 163° South 64 74 5,000  Climbing Seattle Center
05:09PM 46.5339 -122.8831 192° South 69 79 5,000  Level Seattle Center
05:10PM 46.5164 -122.8869 189° South 67 77 5,000  Level Seattle Center
05:11PM 46.4986 -122.8878 182° South 66 76 5,000  Level Seattle Center
05:12PM 46.4822 -122.8844 172° South 64 74 5,000  Level Seattle Center
05:13PM 46.4664 -122.8972 209° Southwest 64 74 5,100 60 Climbing Seattle Center
05:14PM 46.4458 -122.9044 194° South 66 76 5,200  Climbing Seattle Center
05:15PM 46.4242 -122.9069 185° South 72 83 5,100 -60 Descending Seattle Center
05:16PM 46.4047 -122.9183 202° Southwest 73 84 5,100  Level Seattle Center
05:17PM 46.3856 -122.9183 180° South 70 81 5,100  Level Seattle Center
05:18PM 46.3658 -122.9208 185° South 71 82 5,100  Level Seattle Center
05:19PM 46.3444 -122.9214 181° South 75 86 5,100  Level Seattle Center
05:20PM 46.3261 -122.9267 191° South 72 83 5,100  Level Seattle Center
05:21PM 46.3061 -122.9253 177° South 72 83 5,200  Climbing Seattle Center
05:22PM 46.2861 -122.9275 184° South 72 83 5,200  Level Seattle Center
05:23PM 46.2622 -122.9308 186° South 77 89 5,200  Level Seattle Center
05:24PM 46.2419 -122.9239 167° South 76 87 5,200 -120 Level Seattle Center
05:25PM 46.2217 -122.9269 186° South 76 87 5,000 -120 Descending Seattle Center
05:26PM 46.2008 -122.9297 185° South 74 85 5,000  Level Seattle Center
05:27PM 46.1811 -122.9322 185° South 73 84 5,000  Level Seattle Center
05:28PM 46.1600 -122.9272 171° South 74 85 5,100 120 Climbing Seattle Center
05:28PM 46.1517 -122.9192 146° Southeast 84 97 5,200 120 Climbing Seattle Center
05:29PM 46.1467 -122.9150 150° Southeast 88 101 5,200  Level Seattle Center
05:29PM 46.1400 -122.9142 175° South 78 90 5,200  Level Seattle Center
05:30PM 46.1278 -122.9289 220° Southwest 76 87 5,200 -120 Level Seattle Center
05:30PM 46.1244 -122.9344 229° Southwest 72 83 5,100 60 Descending Seattle Center
05:31PM 46.1128 -122.9411 202° Southwest 72 83 5,300 180 Climbing Seattle Center
05:31PM 46.1067 -122.9428 191° South 72 83 5,300 -420 Level Seattle Center
05:32PM 46.0931 -122.9397 171° South 71 82 4,900 -600 Descending Seattle Center
05:32PM 46.0861 -122.9356 157° South 71 82 4,700 -120 Descending Seattle Center
05:33PM 46.0764 -122.9311 162° South 70 81 4,800 180 Climbing Seattle Center
05:33PM 46.0689 -122.9272 160° South 70 81 4,900 180 Climbing Seattle Center
05:34PM 46.0558 -122.9269 179° South 64 74 5,000 60 Climbing Seattle Center
05:34PM 46.0547 -122.9283 221° Southwest 61 70 5,000 60 Level Seattle Center
05:35PM 46.0433 -122.9289 182° South 60 69 5,100 60 Climbing Seattle Center
05:35PM 46.0364 -122.9294 183° South 60 69 5,100 -120 Level Seattle Center
05:36PM 46.0278 -122.9383 216° Southwest 63 72 5,000  Descending Seattle Center
05:36PM 46.0197 -122.9389 183° South 61 70 5,100 60 Climbing Seattle Center
05:37PM 46.0061 -122.9378 177° South 68 78 5,100  Level Seattle Center
05:37PM 46.0008 -122.9397 194° South 66 76 5,100  Level Seattle Center
05:38PM 45.9911 -122.9500 216° Southwest 74 85 5,100  Level Seattle Center
05:38PM 45.9803 -122.9450 162° South 74 85 5,100  Level Seattle Center
05:39PM 45.9708 -122.9458 184° South 76 87 5,100  Level Seattle Center
05:39PM 45.9603 -122.9467 183° South 75 86 5,100 -120 Level Seattle Center
05:40PM 45.9497 -122.9483 186° South 71 82 5,000  Descending Seattle Center
05:40PM 45.9408 -122.9500 187° South 75 86 5,100  Climbing Seattle Center
05:41PM 45.9306 -122.9497 179° South 67 77 5,000 -120 Descending Seattle Center
05:41PM 45.9228 -122.9525 194° South 69 79 5,000 60 Level Seattle Center
05:42PM 45.9133 -122.9506 172° South 67 77 5,100 60 Climbing Seattle Center
05:42PM 45.9039 -122.9500 178° South 68 78 5,100 -120 Level Seattle Center
05:43PM 45.8936 -122.9492 177° South 70 81 5,000 -120 Descending Seattle Center
05:43PM 45.8833 -122.9522 192° South 69 79 5,000 -120 Level Seattle Center
05:44PM 45.8756 -122.9564 200° South 70 81 4,900 -120 Descending Seattle Center
05:44PM 45.8661 -122.9606 197° South 68 78 4,900  Level Seattle Center
05:45PM 45.8575 -122.9639 195° South 61 70 4,900 60 Level Seattle Center
05:45PM 45.8500 -122.9683 202° Southwest 64 74 5,000 180 Climbing Seattle Center
05:46PM 45.8422 -122.9731 203° Southwest 58 67 5,100 60 Climbing Seattle Center
05:46PM 45.8336 -122.9719 175° South 61 70 5,100  Level Seattle Center
05:47PM 45.8231 -122.9747 190° South 64 74 5,100  Level Seattle Center
05:47PM 45.8153 -122.9753 183° South 63 72 5,100 -120 Level Seattle Center
05:48PM 45.8058 -122.9756 181° South 68 78 5,000 -240 Descending Seattle Center
05:48PM 45.7972 -122.9783 193° South 65 75 4,900  Descending Seattle Center
05:49PM 45.7897 -122.9819 199° South 58 67 5,000 180 Climbing Seattle Center
05:49PM 45.7825 -122.9831 186° South 54 62 5,100 60 Climbing Seattle Center
05:50PM 45.7753 -122.9847 189° South 47 54 5,100  Level Seattle Center
05:50PM 45.7672 -122.9819 166° South 54 62 5,100  Level Seattle Center
05:51PM 45.7594 -122.9817 179° South 64 74 5,100 -120 Level Seattle Center
05:52PM 45.7372 -122.9783 174° South 76 87 5,000 -180 Descending Seattle Center
05:52PM 45.7278 -122.9778 178° South 71 82 4,900 -120 Descending Seattle Center
05:53PM 45.7194 -122.9761 172° South 65 75 4,900  Level Seattle Center
05:53PM 45.7114 -122.9778 188° South 62 71 4,900 60 Level Seattle Center
05:54PM 45.7039 -122.9856 216° Southwest 53 61 5,000 180 Climbing Seattle Center
05:54PM 45.6950 -122.9814 162° South 59 68 5,100 60 Climbing Seattle Center
05:55PM 45.6883 -122.9825 187° South 61 70 5,100  Level Seattle Center
05:55PM 45.6761 -122.9792 169° South 67 77 5,100  Level Seattle Center
05:56PM 45.6653 -122.9764 170° South 78 90 5,100  Level Seattle Center
05:56PM 45.6556 -122.9714 160° South 75 86 5,100  Level Seattle Center
05:57PM 45.6464 -122.9686 168° South 72 83 5,100 60 Level Seattle Center
05:57PM 45.6358 -122.9628 159° South 75 86 5,200 60 Climbing Seattle Center
05:58PM 45.6269 -122.9578 159° South 76 87 5,200  Level Seattle Center
05:58PM 45.6156 -122.9583 182° South 75 86 5,200 -120 Level Seattle Center
05:59PM 45.6039 -122.9611 189° South 77 89 5,100 -240 Descending Seattle Center
05:59PM 45.5947 -122.9617 182° South 75 86 5,000 -240 Descending Seattle Center
06:00PM 45.5853 -122.9653 195° South 73 84 4,900  Descending Seattle Center
06:00PM 45.5747 -122.9706 199° South 72 83 5,000 180 Climbing Seattle Center
06:01PM 45.5672 -122.9725 190° South 66 76 5,100 60 Climbing Seattle Center
06:01PM 45.5567 -122.9758 192° South 68 78 5,100  Level Seattle Center
06:02PM 45.5492 -122.9800 201° Southwest 67 77 5,100  Level Seattle Center
06:02PM 45.5389 -122.9850 199° South 68 78 5,100  Level Seattle Center
06:03PM 45.5306 -122.9842 176° South 68 78 5,100  Level Seattle Center
06:03PM 45.5192 -122.9817 171° South 69 79 5,100 -240 Level Seattle Center
06:04PM 45.5103 -122.9800 173° South 75 86 4,900 -120 Descending Seattle Center
06:04PM 45.4989 -122.9797 179° South 72 83 5,000 180 Climbing Seattle Center
06:05PM 45.4900 -122.9758 163° South 71 82 5,100 60 Climbing Seattle Center
06:05PM 45.4800 -122.9675 150° Southeast 71 82 5,100  Level Seattle Center
06:06PM 45.4719 -122.9617 153° Southeast 70 81 5,100  Level Seattle Center
06:06PM 45.4633 -122.9522 142° Southeast 71 82 5,100  Level Seattle Center
06:07PM 45.4558 -122.9464 151° Southeast 71 82 5,100  Level Seattle Center
06:07PM 45.4475 -122.9364 140° Southeast 71 82 5,100 -120 Level Seattle Center
06:08PM 45.4386 -122.9350 174° South 67 77 5,000 -120 Descending Seattle Center
06:08PM 45.4294 -122.9356 182° South 69 79 5,000  Level Seattle Center
06:09PM 45.4214 -122.9358 181° South 65 75 5,000 60 Level Seattle Center
06:09PM 45.4117 -122.9331 169° South 67 77 5,100 60 Climbing Seattle Center
06:10PM 45.4031 -122.9308 170° South 64 74 5,100 -120 Level Seattle Center
06:10PM 45.3933 -122.9233 152° Southeast 66 76 5,000 -120 Descending Seattle Center
06:11PM 45.3861 -122.9222 174° South 68 78 5,000  Level Seattle Center
06:11PM 45.3767 -122.9150 152° Southeast 66 76 5,000 -120 Level Seattle Center
06:12PM 45.3694 -122.9136 172° South 63 72 4,900 -600 Descending Seattle Center
06:12PM 45.3600 -122.9069 154° Southeast 65 75 4,400 -900 Descending Seattle Center
06:13PM 45.3525 -122.9050 170° South 63 72 4,000 -840 Descending Seattle Center
06:14PM 45.3428 -122.9033 173° South 64 74 3,600 -720 Descending Seattle Center
06:14PM 45.3353 -122.9058 193° South 60 69 3,300 -540 Descending Seattle Center
06:15PM 45.3267 -122.9031 167° South 62 71 3,100 -240 Descending Seattle Center
06:15PM 45.3175 -122.9036 182° South 61 70 3,100 180 Level Seattle Center
06:16PM 45.3108 -122.9014 167° South 59 68 3,300 180 Climbing Seattle Center
06:16PM 45.3044 -122.9028 189° South 54 62 3,300 -300 Level Seattle Center
06:17PM 45.3000 -122.9128 238° Southwest 55 63 3,000 -300 Descending Seattle Center
06:18PM 45.2986 -122.9394 266° West 56 64 2,900 -120 Descending Seattle Center